createdAt,value
2022-11-06T00:02:07.853Z,16.60
2022-11-06T00:06:59.874Z,22.08
2022-11-06T00:11:53.617Z,16.90
2022-11-06T00:16:47.788Z,22.27
2022-11-06T00:21:39.686Z,20.95
2022-11-06T00:26:32.491Z,22.90
2022-11-06T00:31:28.641Z,20.80
2022-11-06T00:36:22.379Z,34.17
2022-11-06T00:41:16.344Z,27.52
2022-11-06T00:46:10.707Z,20.50
2022-11-06T00:51:04.327Z,73.40
2022-11-06T00:55:56.427Z,49.05
2022-11-06T01:00:48.253Z,42.25
2022-11-06T01:05:42.145Z,101.47
2022-11-06T01:10:33.798Z,52.67
2022-11-06T01:15:25.375Z,50.63
2022-11-06T01:20:17.102Z,32.83
2022-11-06T01:25:09.271Z,46.05
2022-11-06T01:30:01.325Z,35.65
2022-11-06T01:34:53.034Z,114.07
2022-11-06T01:39:44.937Z,47.30
2022-11-06T01:45:16.774Z,43.45
2022-11-06T01:50:10.356Z,39.25
2022-11-06T01:55:20.093Z,56.50
2022-11-06T02:00:12.507Z,38.90
2022-11-06T02:05:04.603Z,30.45
2022-11-06T02:09:56.362Z,59.67
2022-11-06T02:15:26.166Z,45.10
2022-11-06T02:20:54.176Z,76.95
2022-11-06T02:25:48.787Z,55.80
2022-11-06T02:30:45.960Z,124.30
2022-11-06T02:35:56.296Z,79.30
2022-11-06T02:40:55.310Z,58.10
2022-11-06T02:46:12.908Z,96.45
2022-11-06T02:51:06.204Z,114.18
2022-11-06T02:56:04.781Z,69.82
2022-11-06T03:01:06.685Z,50.47
2022-11-06T03:06:02.886Z,105.90
2022-11-06T03:11:14.807Z,77.75
2022-11-06T03:16:29.518Z,69.68
2022-11-06T03:21:56.572Z,54.10
2022-11-06T03:26:53.053Z,40.85
2022-11-06T03:31:52.623Z,61.08
2022-11-06T03:36:51.145Z,67.55
2022-11-06T03:41:59.374Z,45.00
2022-11-06T03:46:58.318Z,68.55
2022-11-06T03:51:58.600Z,46.50
2022-11-06T03:57:03.670Z,40.03
2022-11-06T04:01:58.990Z,37.03
2022-11-06T04:06:59.738Z,29.33
2022-11-06T04:12:10.595Z,42.80
2022-11-06T04:17:07.429Z,33.15
2022-11-06T04:22:25.058Z,40.78
2022-11-06T04:28:02.550Z,22.50
2022-11-06T04:33:16.862Z,21.40
2022-11-06T04:38:27.926Z,44.92
2022-11-06T04:43:45.853Z,43.90
2022-11-06T04:48:39.185Z,50.13
2022-11-06T04:53:32.805Z,99.32
2022-11-06T04:58:24.345Z,111.40
2022-11-06T05:03:17.116Z,98.13
2022-11-06T05:08:16.988Z,137.20
2022-11-06T05:13:08.801Z,86.07
2022-11-06T05:18:00.431Z,142.20
2022-11-06T05:22:58.096Z,61.35
2022-11-06T05:27:49.666Z,92.68
2022-11-06T05:32:41.441Z,122.55
2022-11-06T05:37:33.018Z,49.75
2022-11-06T05:42:24.620Z,25.88
2022-11-06T05:47:16.154Z,36.17
2022-11-06T05:52:07.904Z,48.50
2022-11-06T05:56:59.626Z,38.00
2022-11-06T06:01:51.513Z,23.10
2022-11-06T06:06:43.385Z,41.20
2022-11-06T06:11:35.076Z,22.70
2022-11-06T06:16:26.666Z,33.35
2022-11-06T06:21:18.284Z,17.48
2022-11-06T06:26:10.067Z,27.73
2022-11-06T06:31:06.029Z,33.70
2022-11-06T06:35:57.601Z,31.92
2022-11-06T06:40:49.368Z,58.15
2022-11-06T06:45:41.729Z,30.15
2022-11-06T06:50:33.496Z,40.72
2022-11-06T06:55:25.911Z,17.48
2022-11-06T07:00:17.677Z,22.50
2022-11-06T07:05:09.580Z,19.58
2022-11-06T07:10:01.166Z,16.13
2022-11-06T07:14:52.809Z,48.78
2022-11-06T07:19:44.397Z,44.78
2022-11-06T07:24:36.119Z,103.82
2022-11-06T07:29:27.810Z,84.95
2022-11-06T07:34:19.456Z,32.45
2022-11-06T07:39:11.072Z,14.35
2022-11-06T07:44:02.686Z,22.83
2022-11-06T07:48:54.844Z,25.52
2022-11-06T07:53:46.518Z,19.77
2022-11-06T07:58:38.780Z,14.75
2022-11-06T08:03:30.619Z,19.17
2022-11-06T08:08:22.368Z,17.52
2022-11-06T08:13:18.140Z,20.88
2022-11-06T08:18:11.484Z,19.05
2022-11-06T08:23:05.294Z,13.75
2022-11-06T08:28:01.661Z,18.45
2022-11-06T08:32:53.857Z,19.30
2022-11-06T08:37:45.567Z,24.05
2022-11-06T08:42:37.381Z,28.30
2022-11-06T08:47:28.932Z,23.75
2022-11-06T08:52:20.541Z,21.50
2022-11-06T08:57:12.093Z,19.42
2022-11-06T09:02:03.922Z,30.23
2022-11-06T09:06:57.771Z,19.15
2022-11-06T09:11:49.488Z,21.38
2022-11-06T09:16:41.070Z,18.17
2022-11-06T09:21:32.841Z,16.55
2022-11-06T09:26:24.435Z,20.05
2022-11-06T09:31:16.032Z,18.10
2022-11-06T09:36:08.116Z,10.60
2022-11-06T09:41:02.249Z,14.18
2022-11-06T09:45:55.359Z,13.18
2022-11-06T09:50:57.030Z,10.27
2022-11-06T09:55:49.700Z,12.48
2022-11-06T10:00:42.477Z,14.27
2022-11-06T10:05:37.111Z,10.25
2022-11-06T10:10:46.133Z,13.95
2022-11-06T10:16:03.543Z,14.40
2022-11-06T10:21:08.454Z,10.52
2022-11-06T10:26:19.020Z,12.23
2022-11-06T10:31:30.144Z,12.30
2022-11-06T10:36:29.509Z,13.25
2022-11-06T10:41:29.444Z,9.75
2022-11-06T10:46:35.282Z,13.50
2022-11-06T10:51:56.436Z,11.75
2022-11-06T10:56:51.210Z,8.15
2022-11-06T11:01:43.104Z,11.75
2022-11-06T11:06:34.845Z,13.63
2022-11-06T11:11:28.499Z,11.45
2022-11-06T11:16:23.617Z,10.10
2022-11-06T11:21:18.220Z,10.13
2022-11-06T11:26:24.244Z,10.93
2022-11-06T11:31:18.141Z,10.30
2022-11-06T11:36:10.293Z,16.90
2022-11-06T11:41:12.825Z,8.90
2022-11-06T11:46:19.181Z,7.35
2022-11-06T11:51:37.729Z,12.73
2022-11-06T11:56:57.735Z,10.13
2022-11-06T12:01:42.240Z,13.30
2022-11-06T12:06:33.968Z,9.57
2022-11-06T12:11:29.713Z,8.45
2022-11-06T12:16:21.655Z,12.60
2022-11-06T12:21:28.265Z,7.95
2022-11-06T12:26:44.107Z,12.10
2022-11-06T12:31:52.366Z,8.23
2022-11-06T12:36:59.088Z,13.98
2022-11-06T12:41:53.326Z,10.05
2022-11-06T12:47:04.981Z,7.60
2022-11-06T12:51:56.537Z,17.77
2022-11-06T12:57:27.045Z,10.93
2022-11-06T13:02:40.730Z,12.07
2022-11-06T13:08:28.373Z,10.00
2022-11-06T13:13:57.068Z,15.48
2022-11-06T13:18:58.526Z,6.43
2022-11-06T13:23:58.427Z,9.23
2022-11-06T13:28:57.096Z,9.85
2022-11-06T13:33:57.098Z,8.82
2022-11-06T13:38:56.367Z,7.85
2022-11-06T13:44:16.228Z,9.63
2022-11-06T13:49:34.964Z,31.33
2022-11-06T13:59:48.573Z,9.05
2022-11-06T14:05:12.382Z,10.25
2022-11-06T14:10:05.621Z,10.02
2022-11-06T14:15:39.038Z,5.75
2022-11-06T14:20:37.098Z,7.95
2022-11-06T14:30:57.656Z,5.90
2022-11-06T14:35:42.458Z,5.38
2022-11-06T14:40:34.128Z,5.13
2022-11-06T14:45:26.898Z,2.58
2022-11-06T14:50:18.443Z,3.40
2022-11-06T14:55:25.788Z,3.20
2022-11-06T15:00:56.336Z,6.22
2022-11-06T15:05:52.367Z,2.70
2022-11-06T15:10:44.965Z,4.15
2022-11-06T15:15:41.263Z,2.60
2022-11-06T15:20:33.733Z,4.32
2022-11-06T15:25:28.053Z,2.88
2022-11-06T15:30:20.815Z,6.30
2022-11-06T15:35:19.417Z,2.53
2022-11-06T15:40:24.446Z,3.25
2022-11-06T15:45:16.146Z,4.82
2022-11-06T15:50:13.822Z,3.60
2022-11-06T15:55:06.647Z,4.47
2022-11-06T16:00:21.963Z,1.88
2022-11-06T16:05:13.658Z,1.98
2022-11-06T16:10:05.959Z,2.33
2022-11-06T16:14:57.632Z,2.65
2022-11-06T16:19:51.009Z,2.35
2022-11-06T16:24:45.667Z,0.82
2022-11-06T16:29:38.451Z,2.42
2022-11-06T16:34:44.478Z,1.33
2022-11-06T16:39:49.975Z,3.78
2022-11-06T16:44:42.076Z,1.60
2022-11-06T16:49:35.903Z,2.53
2022-11-06T16:54:30.967Z,9.10
2022-11-06T16:59:26.683Z,5.20
2022-11-06T17:04:21.254Z,4.55
2022-11-06T17:09:34.044Z,2.17
2022-11-06T17:14:25.934Z,2.25
2022-11-06T17:19:21.874Z,3.40
2022-11-06T17:29:25.406Z,4.18
2022-11-06T17:34:17.422Z,5.78
2022-11-06T17:39:09.178Z,6.50
2022-11-06T17:44:06.086Z,4.47
2022-11-06T17:48:57.795Z,6.85
2022-11-06T17:53:49.575Z,3.92
2022-11-06T17:58:41.293Z,4.35
2022-11-06T18:03:36.469Z,4.07
2022-11-06T18:08:28.574Z,5.45
2022-11-06T18:13:20.190Z,4.82
2022-11-06T18:18:12.142Z,2.60
2022-11-06T18:23:03.932Z,6.90
2022-11-06T18:27:59.507Z,5.72
2022-11-06T18:32:54.098Z,6.13
2022-11-06T18:37:45.682Z,5.97
2022-11-06T18:42:37.364Z,8.75
2022-11-06T18:47:29.036Z,4.45
2022-11-06T18:52:44.358Z,5.95
2022-11-06T18:57:32.306Z,7.63
2022-11-06T19:02:24.533Z,5.97
2022-11-06T19:07:16.446Z,6.57
2022-11-06T19:12:08.172Z,6.82
2022-11-06T19:16:59.743Z,3.67
2022-11-06T19:21:51.390Z,6.63
2022-11-06T19:26:43.092Z,9.35
2022-11-06T19:31:37.091Z,8.57
2022-11-06T19:36:32.283Z,7.10
2022-11-06T19:41:24.391Z,8.27
2022-11-06T19:46:25.090Z,7.70
2022-11-06T19:51:20.576Z,7.88
2022-11-06T19:56:16.675Z,7.28
2022-11-06T20:01:13.230Z,8.07
2022-11-06T20:06:08.012Z,12.20
2022-11-06T20:11:14.044Z,4.68
2022-11-06T20:16:09.596Z,4.13
2022-11-06T20:21:03.750Z,7.53
2022-11-06T20:25:55.686Z,6.40
2022-11-06T20:30:48.069Z,7.85
2022-11-06T20:35:39.872Z,5.88
2022-11-06T20:40:34.572Z,2.75
2022-11-06T20:45:26.818Z,4.20
2022-11-06T20:50:18.592Z,3.47
2022-11-06T20:55:10.405Z,3.10
2022-11-06T21:00:02.297Z,4.70
2022-11-06T21:04:54.080Z,2.92
2022-11-06T21:09:45.771Z,7.90
2022-11-06T21:14:37.615Z,3.33
2022-11-06T21:19:30.092Z,4.18
2022-11-06T21:24:22.107Z,4.15
2022-11-06T21:29:13.817Z,3.58
2022-11-06T21:34:05.888Z,6.03
2022-11-06T21:39:01.135Z,3.55
2022-11-06T21:43:52.902Z,1.08
2022-11-06T21:48:47.320Z,1.80
2022-11-06T21:53:58.648Z,2.03
2022-11-06T21:58:51.717Z,3.05
2022-11-06T22:03:43.420Z,1.52
2022-11-06T22:08:37.069Z,2.33
2022-11-06T22:13:29.693Z,2.08
2022-11-06T22:18:21.396Z,4.80
2022-11-06T22:23:13.460Z,1.98
2022-11-06T22:28:05.505Z,2.78
2022-11-06T22:32:57.176Z,4.05
2022-11-06T22:37:48.778Z,6.15
2022-11-06T22:42:40.500Z,2.65
2022-11-06T22:47:32.301Z,2.05
2022-11-06T22:52:23.936Z,3.58
2022-11-06T22:57:15.527Z,4.43
2022-11-06T23:02:07.236Z,2.35
2022-11-06T23:06:59.337Z,3.92
2022-11-06T23:11:50.967Z,6.43
2022-11-06T23:16:57.413Z,4.82
2022-11-06T23:21:49.130Z,5.68
2022-11-06T23:26:43.193Z,4.35
2022-11-06T23:31:35.195Z,4.72
2022-11-06T23:36:27.035Z,7.43
2022-11-06T23:41:37.383Z,3.88
2022-11-06T23:46:32.120Z,4.50
2022-11-06T23:51:25.497Z,4.70
2022-11-06T23:56:17.243Z,6.65
